Time;durP1;ratioP1;P1;durP2;ratioP2;P2;SDS_P1;SDS_P2;PMS_P1;PMS_P2;Temp;Humidity;BMP_temperature;BMP_pressure;BME280_temperature;BME280_humidity;BME280_pressure;Samples;Min_cycle;Max_cycle;Signal;HPM_P1;HPM_P2
2022/04/24 00:02:21;;;;;;;8.90;7.72;;;11.00;99.90;;;;;;5054730;28;20118;-74
2022/04/24 00:04:47;;;;;;;9.40;8.00;;;11.00;99.90;;;;;;5053714;28;20029;-74
2022/04/24 00:07:12;;;;;;;9.02;8.13;;;11.00;99.90;;;;;;5054980;28;20039;-74
2022/04/24 00:09:38;;;;;;;9.68;7.90;;;11.00;99.90;;;;;;5037025;28;20386;-74
2022/04/24 00:12:06;;;;;;;9.52;7.85;;;11.00;99.90;;;;;;5054825;28;20028;-74
2022/04/24 00:14:32;;;;;;;8.82;7.63;;;10.90;99.90;;;;;;5054817;28;20476;-74
2022/04/24 00:16:57;;;;;;;11.52;7.60;;;10.80;99.90;;;;;;5054821;28;20035;-74
2022/04/24 00:19:23;;;;;;;8.60;7.35;;;10.70;99.90;;;;;;5053452;28;20033;-74
2022/04/24 00:21:49;;;;;;;8.73;7.82;;;10.70;99.90;;;;;;5036838;28;20119;-74
2022/04/24 00:24:15;;;;;;;10.70;8.10;;;10.70;99.90;;;;;;5052865;28;20022;-74
2022/04/24 00:26:40;;;;;;;8.60;7.65;;;10.60;99.90;;;;;;5053088;28;20029;-75
2022/04/24 00:29:06;;;;;;;10.60;8.35;;;10.60;99.90;;;;;;5036690;28;20407;-75
2022/04/24 00:31:32;;;;;;;10.95;8.57;;;10.60;99.90;;;;;;5054501;28;20025;-75
2022/04/24 00:33:57;;;;;;;10.95;8.25;;;10.50;99.90;;;;;;5053432;28;20506;-75
2022/04/24 00:36:23;;;;;;;10.68;8.23;;;10.50;99.90;;;;;;5054487;28;20399;-74
2022/04/24 00:38:48;;;;;;;10.07;8.52;;;10.50;99.90;;;;;;5054419;28;20086;-74
2022/04/24 00:41:14;;;;;;;8.88;7.95;;;10.40;99.90;;;;;;5054442;28;20028;-74
2022/04/24 00:43:40;;;;;;;9.18;8.23;;;10.40;99.90;;;;;;5054385;28;20092;-74
2022/04/24 00:46:14;;;;;;;11.00;8.38;;;10.40;99.90;;;;;;5054226;28;20032;-72
2022/04/24 00:48:41;;;;;;;9.93;8.02;;;10.30;99.90;;;;;;5054304;28;20056;-74
2022/04/24 00:51:08;;;;;;;14.43;8.60;;;10.20;99.90;;;;;;5052948;28;20079;-72
2022/04/24 00:53:35;;;;;;;9.60;8.10;;;10.10;99.90;;;;;;5052880;28;20471;-72
2022/04/24 00:56:01;;;;;;;10.23;8.77;;;10.10;99.90;;;;;;5052800;28;20483;-72
2022/04/24 00:58:27;;;;;;;9.00;8.10;;;10.00;99.90;;;;;;5053937;28;20060;-72
2022/04/24 01:00:52;;;;;;;11.93;9.13;;;9.90;99.90;;;;;;5053815;28;20033;-72
2022/04/24 01:03:18;;;;;;;11.85;8.60;;;10.00;99.90;;;;;;5053696;28;20430;-72
2022/04/24 01:05:44;;;;;;;11.00;9.15;;;9.90;99.90;;;;;;5053889;28;20510;-72
2022/04/24 01:08:09;;;;;;;10.35;8.65;;;10.00;99.90;;;;;;5052544;28;20480;-74
2022/04/24 01:10:37;;;;;;;10.85;9.20;;;10.00;99.90;;;;;;5053773;28;20108;-72
2022/04/24 01:13:03;;;;;;;11.32;9.25;;;9.90;99.90;;;;;;5053676;28;20029;-72
2022/04/24 01:15:29;;;;;;;9.63;8.20;;;9.90;99.90;;;;;;5035865;28;20025;-73
2022/04/24 01:17:56;;;;;;;10.15;8.68;;;9.80;99.90;;;;;;5053551;28;20364;-72
2022/04/24 01:20:22;;;;;;;10.50;8.68;;;9.80;99.90;;;;;;5053576;28;20029;-72
2022/04/24 01:22:47;;;;;;;11.18;8.93;;;9.80;99.90;;;;;;5053491;28;20364;-72
2022/04/24 01:25:14;;;;;;;12.18;9.80;;;9.80;99.90;;;;;;5053556;28;20033;-72
2022/04/24 01:27:40;;;;;;;12.48;9.35;;;9.70;99.90;;;;;;5052317;28;20021;-72
2022/04/24 01:30:07;;;;;;;11.10;9.85;;;9.70;99.90;;;;;;5052165;28;20395;-72
2022/04/24 01:32:33;;;;;;;11.77;9.52;;;9.60;99.90;;;;;;5035507;28;20060;-72
2022/04/24 01:34:59;;;;;;;11.50;9.57;;;9.60;99.90;;;;;;5053445;28;20049;-72
2022/04/24 01:37:25;;;;;;;10.95;9.50;;;9.50;99.90;;;;;;5051846;28;20483;-72
2022/04/24 01:39:53;;;;;;;11.63;9.50;;;9.50;99.90;;;;;;5053259;28;20037;-73
2022/04/24 01:42:18;;;;;;;11.00;9.52;;;9.40;99.90;;;;;;5053215;28;20111;-73
2022/04/24 01:44:44;;;;;;;12.07;9.65;;;9.30;99.90;;;;;;5051926;28;20121;-72
2022/04/24 01:47:09;;;;;;;14.07;10.13;;;9.50;99.90;;;;;;5053281;28;20017;-72
2022/04/24 01:49:35;;;;;;;11.50;9.80;;;9.50;99.90;;;;;;5053092;28;20112;-72
2022/04/24 01:52:00;;;;;;;12.65;10.43;;;9.50;99.90;;;;;;5052031;28;20017;-72
2022/04/24 01:54:26;;;;;;;11.95;9.50;;;9.40;99.90;;;;;;5053094;28;20021;-72
2022/04/24 01:56:51;;;;;;;11.77;9.90;;;9.30;99.90;;;;;;5051944;28;20395;-72
2022/04/24 01:59:18;;;;;;;11.85;10.07;;;9.20;99.90;;;;;;5053088;28;20036;-72
2022/04/24 02:01:43;;;;;;;13.10;10.43;;;9.20;99.90;;;;;;5085063;28;20049;-72
2022/04/24 02:04:09;;;;;;;12.23;10.45;;;9.20;99.90;;;;;;5053107;28;20384;-72
2022/04/24 02:06:34;;;;;;;14.10;10.93;;;9.20;99.90;;;;;;5053117;28;20100;-72
2022/04/24 02:09:00;;;;;;;15.45;11.15;;;9.20;99.90;;;;;;5053007;28;20028;-72
2022/04/24 02:11:25;;;;;;;15.63;11.27;;;9.10;99.90;;;;;;5052990;28;20029;-72
2022/04/24 02:13:51;;;;;;;15.00;10.93;;;9.00;99.90;;;;;;5052914;28;20025;-72
2022/04/24 02:16:16;;;;;;;13.98;10.70;;;9.00;99.90;;;;;;5085299;28;20029;-72
2022/04/24 02:18:42;;;;;;;13.48;11.35;;;8.90;99.90;;;;;;5052999;28;20368;-72
2022/04/24 02:21:07;;;;;;;15.02;10.90;;;9.00;99.90;;;;;;5052746;28;20036;-72
2022/04/24 02:23:33;;;;;;;13.85;10.80;;;9.00;99.90;;;;;;5052837;28;20028;-72
2022/04/24 02:25:58;;;;;;;15.18;11.43;;;8.90;99.90;;;;;;5052847;28;20505;-72
2022/04/24 02:28:24;;;;;;;15.93;12.07;;;8.90;99.90;;;;;;5052845;28;20475;-72
2022/04/24 02:30:50;;;;;;;15.95;11.82;;;8.80;99.90;;;;;;5052775;28;20021;-72
2022/04/24 02:33:15;;;;;;;15.43;12.13;;;8.80;99.90;;;;;;5051471;28;20078;-73
2022/04/24 02:35:41;;;;;;;14.75;11.40;;;8.80;99.90;;;;;;5052854;28;20025;-74
2022/04/24 02:38:06;;;;;;;17.77;11.85;;;8.80;99.90;;;;;;5052689;28;20371;-72
2022/04/24 02:40:32;;;;;;;15.65;11.68;;;8.80;99.90;;;;;;5068473;28;20025;-73
2022/04/24 02:42:57;;;;;;;15.75;11.95;;;8.80;99.90;;;;;;5052498;28;20029;-72
2022/04/24 02:45:23;;;;;;;15.23;11.95;;;8.70;99.90;;;;;;5052680;28;20037;-72
2022/04/24 02:47:48;;;;;;;15.00;11.27;;;8.70;99.90;;;;;;5052905;28;20029;-72
2022/04/24 02:50:14;;;;;;;15.68;11.48;;;8.70;99.90;;;;;;5056496;28;20494;-72
2022/04/24 02:52:49;;;;;;;16.52;12.20;;;8.70;99.90;;;;;;5088822;28;20032;-72
2022/04/24 02:55:16;;;;;;;15.65;12.35;;;8.70;99.90;;;;;;5056382;28;20021;-72
2022/04/24 02:57:43;;;;;;;18.55;12.20;;;8.70;99.90;;;;;;5088670;28;20059;-72
2022/04/24 03:00:10;;;;;;;16.20;11.43;;;8.70;99.90;;;;;;5088456;28;20544;-72
2022/04/24 03:02:43;;;;;;;13.90;11.43;;;8.60;99.90;;;;;;5055872;28;20075;-73
2022/04/24 03:05:13;;;;;;;;;;;8.50;99.90;;;;;;5056553;28;20036;-72
2022/04/24 03:07:40;;;;;;;13.00;10.93;;;8.50;99.90;;;;;;5056158;28;19955;-72
2022/04/24 03:10:08;;;;;;;16.40;11.52;;;8.50;99.90;;;;;;5056023;28;20080;-72
2022/04/24 03:12:35;;;;;;;14.50;11.70;;;8.50;99.90;;;;;;5056005;28;20033;-72
2022/04/24 03:15:01;;;;;;;15.02;11.95;;;8.40;99.90;;;;;;5055979;28;20507;-73
2022/04/24 03:17:26;;;;;;;17.48;12.60;;;8.40;99.90;;;;;;5088165;28;20139;-72
2022/04/24 03:19:52;;;;;;;15.02;11.68;;;8.30;99.90;;;;;;5055924;28;20053;-72
2022/04/24 03:22:17;;;;;;;14.77;11.23;;;8.40;99.90;;;;;;5088094;28;20033;-72
2022/04/24 03:24:43;;;;;;;16.80;11.65;;;8.50;99.90;;;;;;5055811;28;20032;-72
2022/04/24 03:27:08;;;;;;;15.57;11.88;;;8.40;99.90;;;;;;5054429;28;20017;-72
2022/04/24 03:29:34;;;;;;;16.20;12.48;;;8.40;99.90;;;;;;5088025;28;20122;-72
2022/04/24 03:31:59;;;;;;;15.75;11.23;;;8.40;99.90;;;;;;5055623;28;20037;-72
2022/04/24 03:34:26;;;;;;;15.95;12.02;;;8.40;99.90;;;;;;5055600;28;20498;-72
2022/04/24 03:36:52;;;;;;;15.48;11.40;;;8.50;99.90;;;;;;5055528;28;20025;-72
2022/04/24 03:39:17;;;;;;;15.27;11.20;;;8.40;99.90;;;;;;5055529;28;20499;-72
2022/04/24 03:41:42;;;;;;;15.23;11.23;;;8.40;99.90;;;;;;5054147;28;20111;-72
2022/04/24 03:44:08;;;;;;;15.00;11.95;;;8.30;99.90;;;;;;5055390;28;20498;-72
2022/04/24 03:46:33;;;;;;;17.80;10.95;;;8.30;99.90;;;;;;5055333;28;20025;-72
2022/04/24 03:48:59;;;;;;;15.02;11.27;;;8.30;99.90;;;;;;5055301;28;20036;-72
2022/04/24 03:51:24;;;;;;;16.20;11.10;;;8.20;99.90;;;;;;5053970;28;20115;-72
2022/04/24 03:53:50;;;;;;;18.65;11.63;;;8.20;99.90;;;;;;5070660;28;20028;-72
2022/04/24 03:56:15;;;;;;;16.38;11.35;;;8.10;99.90;;;;;;5055217;28;20448;-72
2022/04/24 03:58:41;;;;;;;16.58;11.23;;;8.20;99.90;;;;;;5087400;28;20029;-73
2022/04/24 04:01:07;;;;;;;15.52;10.63;;;8.10;99.90;;;;;;5070198;28;20510;-72
2022/04/24 04:03:32;;;;;;;17.10;11.02;;;8.10;99.90;;;;;;5055047;28;20029;-72
2022/04/24 04:05:57;;;;;;;16.02;11.40;;;8.00;99.90;;;;;;5054971;28;20167;-73
2022/04/24 04:08:23;;;;;;;14.00;10.23;;;8.00;99.90;;;;;;5053674;28;20028;-72
2022/04/24 04:10:48;;;;;;;15.57;10.35;;;8.00;99.90;;;;;;5054882;28;20021;-72
2022/04/24 04:13:15;;;;;;;12.52;10.25;;;8.00;99.90;;;;;;5054951;28;20498;-72
2022/04/24 04:15:41;;;;;;;14.27;10.02;;;7.90;99.90;;;;;;5054787;28;20033;-72
2022/04/24 04:18:07;;;;;;;14.32;10.52;;;7.90;99.90;;;;;;5054875;28;20025;-72
2022/04/24 04:20:33;;;;;;;14.77;10.35;;;7.90;99.90;;;;;;5087105;28;20035;-72
2022/04/24 04:22:58;;;;;;;14.55;10.50;;;7.80;99.90;;;;;;5054615;28;20047;-72
2022/04/24 04:25:24;;;;;;;16.13;10.75;;;7.90;99.90;;;;;;5054617;28;20052;-72
2022/04/24 04:27:51;;;;;;;12.70;9.25;;;7.90;99.90;;;;;;5054649;28;20100;-72
2022/04/24 04:30:17;;;;;;;15.15;10.00;;;7.90;99.90;;;;;;5054565;28;20017;-72
2022/04/24 04:32:43;;;;;;;11.63;9.45;;;7.90;99.90;;;;;;5053239;28;20380;-72
2022/04/24 04:35:09;;;;;;;15.85;10.43;;;8.00;99.90;;;;;;5054457;28;20120;-72
2022/04/24 04:37:37;;;;;;;14.02;10.10;;;8.10;99.90;;;;;;5054426;28;20017;-72
2022/04/24 04:40:04;;;;;;;11.27;9.63;;;8.00;99.90;;;;;;5053112;28;20025;-72
2022/04/24 04:42:30;;;;;;;14.18;9.68;;;8.00;99.90;;;;;;5054180;28;20025;-72
2022/04/24 04:44:58;;;;;;;16.52;9.77;;;8.00;99.90;;;;;;5052972;28;20494;-72
2022/04/24 04:47:24;;;;;;;13.02;10.25;;;8.00;99.90;;;;;;5054273;28;20487;-72
2022/04/24 04:49:50;;;;;;;12.55;10.18;;;8.10;99.90;;;;;;5054215;28;20020;-72
2022/04/24 04:52:16;;;;;;;18.45;10.18;;;8.10;99.90;;;;;;5054164;28;20024;-72
2022/04/24 04:54:41;;;;;;;14.13;9.15;;;8.10;99.90;;;;;;5054109;28;20036;-72
2022/04/24 04:57:07;;;;;;;13.07;9.70;;;8.20;99.90;;;;;;5054036;28;20234;-72
2022/04/24 04:59:33;;;;;;;15.70;9.60;;;8.20;99.90;;;;;;5053990;28;20125;-72
2022/04/24 05:01:59;;;;;;;14.10;10.18;;;8.30;99.90;;;;;;5035851;28;20178;-72
2022/04/24 05:04:25;;;;;;;14.07;9.77;;;8.30;99.90;;;;;;5053968;28;20104;-72
2022/04/24 05:06:50;;;;;;;11.98;8.82;;;8.40;99.90;;;;;;5052596;28;20155;-72
2022/04/24 05:09:16;;;;;;;13.77;9.05;;;8.50;99.90;;;;;;5053863;28;20024;-72
2022/04/24 05:11:42;;;;;;;11.00;8.57;;;8.60;99.90;;;;;;5053432;28;20103;-72
2022/04/24 05:14:07;;;;;;;14.43;9.20;;;8.60;99.90;;;;;;5052582;28;20025;-72
2022/04/24 05:16:33;;;;;;;12.82;9.20;;;8.60;99.90;;;;;;5053692;28;20036;-72
2022/04/24 05:18:58;;;;;;;14.15;9.20;;;8.60;99.90;;;;;;5052367;28;20021;-72
2022/04/24 05:21:25;;;;;;;11.30;8.93;;;8.60;99.90;;;;;;5035626;28;20115;-72
2022/04/24 05:23:52;;;;;;;11.27;8.15;;;8.70;99.90;;;;;;5053542;28;20075;-71
2022/04/24 05:26:18;;;;;;;11.60;8.55;;;8.80;99.90;;;;;;5053542;28;20483;-72
2022/04/24 05:28:43;;;;;;;11.52;9.05;;;8.80;99.90;;;;;;5052180;28;20020;-72
2022/04/24 05:31:09;;;;;;;12.55;9.30;;;8.90;99.90;;;;;;5053401;28;20435;-72
2022/04/24 05:33:34;;;;;;;10.60;8.65;;;9.00;99.90;;;;;;5052111;28;20029;-72
2022/04/24 05:36:00;;;;;;;13.00;8.70;;;9.10;99.90;;;;;;5053398;28;20094;-72
2022/04/24 05:38:25;;;;;;;14.63;9.13;;;9.20;99.90;;;;;;5052154;28;20457;-72
2022/04/24 05:40:51;;;;;;;15.50;8.68;;;9.40;99.90;;;;;;5053262;28;20025;-72
2022/04/24 05:43:16;;;;;;;9.85;8.68;;;10.10;99.90;;;;;;5053221;28;20033;-72
2022/04/24 05:45:42;;;;;;;11.18;7.47;;;11.40;99.90;;;;;;5053305;28;20032;-73
2022/04/24 05:48:08;;;;;;;8.73;7.25;;;12.10;99.90;;;;;;5053207;28;20422;-72
2022/04/24 05:50:33;;;;;;;11.98;7.20;;;12.70;99.90;;;;;;5052014;28;20040;-73
2022/04/24 05:52:59;;;;;;;9.50;7.28;;;13.90;99.90;;;;;;5053183;28;20147;-72
2022/04/24 05:55:25;;;;;;;9.07;6.68;;;13.90;99.90;;;;;;5053073;28;20510;-73
2022/04/24 05:57:52;;;;;;;11.65;7.25;;;13.60;99.90;;;;;;5051978;28;20032;-73
2022/04/24 06:00:18;;;;;;;7.80;7.00;;;14.50;99.90;;;;;;5053100;28;20036;-73
2022/04/24 06:02:44;;;;;;;8.88;7.20;;;14.50;99.90;;;;;;5052752;28;20044;-73
2022/04/24 06:05:11;;;;;;;7.20;6.53;;;14.30;99.90;;;;;;5051682;28;20498;-73
2022/04/24 06:07:37;;;;;;;10.77;6.80;;;14.00;99.90;;;;;;5052976;28;20406;-73
2022/04/24 06:10:04;;;;;;;12.00;6.82;;;14.30;99.90;;;;;;5051729;28;20124;-73
2022/04/24 06:12:30;;;;;;;8.52;6.55;;;14.80;99.90;;;;;;5052923;28;20479;-73
2022/04/24 06:15:03;;;;;;;7.15;6.43;;;14.40;99.40;;;;;;5051641;28;20025;-73
2022/04/24 06:17:29;;;;;;;8.20;6.25;;;15.10;99.40;;;;;;5051760;28;20052;-73
2022/04/24 06:19:54;;;;;;;12.07;6.90;;;14.60;98.90;;;;;;5052912;28;20060;-73
2022/04/24 06:22:19;;;;;;;9.50;6.20;;;15.70;97.90;;;;;;5052853;28;20029;-73
2022/04/24 06:24:49;;;;;;;7.90;6.32;;;16.70;95.50;;;;;;5056306;28;20029;-73
2022/04/24 06:27:15;;;;;;;8.85;6.20;;;16.70;94.00;;;;;;5055625;28;20105;-73
2022/04/24 06:29:40;;;;;;;10.52;6.82;;;16.90;92.90;;;;;;5056809;28;20053;-74
2022/04/24 06:32:08;;;;;;;6.38;5.72;;;17.00;93.20;;;;;;5056784;28;20032;-73
2022/04/24 06:34:33;;;;;;;7.88;6.95;;;16.80;91.90;;;;;;5056704;28;20021;-73
2022/04/24 06:36:59;;;;;;;6.90;6.03;;;16.20;92.70;;;;;;5056679;28;20437;-73
2022/04/24 06:39:24;;;;;;;10.63;6.68;;;16.30;93.50;;;;;;5055522;28;20025;-73
2022/04/24 06:41:50;;;;;;;8.80;6.25;;;16.30;93.30;;;;;;5056618;28;20383;-73
2022/04/24 06:44:15;;;;;;;11.57;7.35;;;16.60;92.60;;;;;;5056549;28;20025;-74
2022/04/24 06:46:43;;;;;;;10.68;7.38;;;16.70;92.30;;;;;;5056463;28;20032;-73
2022/04/24 06:49:09;;;;;;;10.93;6.78;;;17.00;92.60;;;;;;5055173;28;20463;-74
2022/04/24 06:51:34;;;;;;;7.55;6.82;;;17.90;90.50;;;;;;5056386;28;20029;-73
2022/04/24 06:54:00;;;;;;;10.57;6.93;;;17.60;90.00;;;;;;5056404;28;20033;-73
2022/04/24 06:56:25;;;;;;;10.43;7.13;;;16.10;92.60;;;;;;5055146;28;20108;-73
2022/04/24 06:58:52;;;;;;;10.45;7.07;;;17.30;91.20;;;;;;5054960;28;20029;-73
2022/04/24 07:01:19;;;;;;;7.57;6.78;;;17.10;90.10;;;;;;5056036;28;20045;-73
2022/04/24 07:03:45;;;;;;;9.95;7.22;;;17.40;91.10;;;;;;5056189;28;20025;-73
2022/04/24 07:06:10;;;;;;;9.48;7.15;;;16.60;91.40;;;;;;5054963;28;20036;-74
2022/04/24 07:08:36;;;;;;;10.40;6.97;;;17.50;89.60;;;;;;5056087;28;20025;-74
2022/04/24 07:11:01;;;;;;;8.70;7.53;;;18.20;89.10;;;;;;5056064;28;20036;-73
2022/04/24 07:13:27;;;;;;;9.02;7.40;;;18.20;85.20;;;;;;5056044;28;20028;-73
2022/04/24 07:15:52;;;;;;;9.32;7.80;;;17.70;84.40;;;;;;5056180;28;20028;-73
2022/04/24 07:18:18;;;;;;;9.82;8.00;;;18.40;86.10;;;;;;5054644;28;20028;-73
2022/04/24 07:20:43;;;;;;;9.75;7.97;;;18.10;86.30;;;;;;5055917;28;20032;-74
2022/04/24 07:23:11;;;;;;;9.85;7.85;;;18.30;84.70;;;;;;5055753;28;20475;-73
2022/04/24 07:25:43;;;;;;;12.38;8.10;;;18.00;85.40;;;;;;5038172;28;20527;-73
2022/04/24 07:28:10;;;;;;;9.45;8.15;;;16.90;87.50;;;;;;5055688;28;20021;-73
2022/04/24 07:30:35;;;;;;;9.55;7.78;;;18.10;85.30;;;;;;5055690;28;20035;-73
2022/04/24 07:33:01;;;;;;;10.13;8.00;;;18.00;85.40;;;;;;5054400;28;20021;-73
2022/04/24 07:35:28;;;;;;;8.77;7.57;;;18.20;84.60;;;;;;5053999;28;20079;-74
2022/04/24 07:37:55;;;;;;;10.50;8.60;;;19.10;83.80;;;;;;5055530;28;20039;-74
2022/04/24 07:40:22;;;;;;;11.02;8.75;;;18.40;79.70;;;;;;5054346;28;20024;-74
2022/04/24 07:45:28;;;;;;;11.07;8.68;;;18.10;82.00;;;;;;5123634;27;20149;-73
2022/04/24 07:47:55;;;;;;;11.48;8.60;;;18.10;84.20;;;;;;5090745;28;20028;-73
2022/04/24 07:50:22;;;;;;;11.52;9.25;;;19.40;80.60;;;;;;5089521;28;20027;-73
2022/04/24 07:52:49;;;;;;;11.60;9.80;;;19.10;77.30;;;;;;5090709;28;20028;-73
2022/04/24 07:55:17;;;;;;;10.77;8.95;;;19.20;80.30;;;;;;5090694;28;20024;-74
2022/04/24 07:57:45;;;;;;;12.55;9.52;;;18.00;79.10;;;;;;5089373;28;20048;-74
2022/04/24 08:00:11;;;;;;;13.40;9.55;;;18.70;78.70;;;;;;5123249;28;20172;-74
2022/04/24 08:03:00;;;;;;;12.75;10.18;;;18.40;80.50;;;;;;5089343;28;20020;-73
2022/04/24 08:05:29;;;;;;;10.25;9.15;;;18.40;79.60;;;;;;5089234;28;20367;-74
2022/04/24 08:07:57;;;;;;;13.15;9.80;;;19.30;79.10;;;;;;5089214;28;20028;-74
2022/04/24 08:10:26;;;;;;;12.82;10.20;;;19.50;77.20;;;;;;5090419;28;20542;-74
2022/04/24 08:12:52;;;;;;;14.68;10.98;;;19.40;76.70;;;;;;5090201;28;20478;-74
2022/04/24 08:15:18;;;;;;;10.88;9.75;;;19.90;74.70;;;;;;5105757;28;20020;-75
2022/04/24 08:17:44;;;;;;;13.70;10.85;;;19.60;74.90;;;;;;5090260;28;20476;-74
2022/04/24 08:20:11;;;;;;;11.07;9.90;;;19.40;75.20;;;;;;5090134;28;20033;-74
2022/04/24 08:22:43;;;;;;;12.55;9.20;;;19.50;75.20;;;;;;5090035;28;20386;-74
2022/04/24 08:25:10;;;;;;;10.38;9.18;;;19.40;76.90;;;;;;5088586;28;20031;-74
2022/04/24 08:27:37;;;;;;;11.40;9.30;;;19.80;74.90;;;;;;5089911;28;20012;-74
2022/04/24 08:30:06;;;;;;;11.55;9.43;;;20.40;73.30;;;;;;5089916;28;20474;-74
2022/04/24 08:32:31;;;;;;;10.25;9.18;;;20.40;70.90;;;;;;5089837;28;20020;-74
2022/04/24 08:34:57;;;;;;;12.45;9.93;;;18.70;75.70;;;;;;5089822;28;20021;-74
2022/04/24 08:37:24;;;;;;;12.05;9.23;;;18.70;76.20;;;;;;5089846;28;20024;-74
2022/04/24 08:39:51;;;;;;;12.32;9.93;;;20.00;74.80;;;;;;5089745;28;20052;-74
2022/04/24 08:42:21;;;;;;;10.50;9.43;;;20.00;73.20;;;;;;5089703;28;20016;-74
2022/04/24 08:44:49;;;;;;;13.38;9.70;;;20.00;73.60;;;;;;5089492;28;20047;-74
2022/04/24 08:47:16;;;;;;;15.98;9.73;;;20.90;73.00;;;;;;5122318;27;20047;-74
2022/04/24 08:49:42;;;;;;;11.77;9.60;;;21.40;71.10;;;;;;5089511;28;20024;-74
2022/04/24 08:52:10;;;;;;;12.15;10.10;;;20.70;70.70;;;;;;5089540;28;20024;-74
2022/04/24 08:54:37;;;;;;;12.98;9.55;;;21.00;72.30;;;;;;5121466;28;20483;-75
2022/04/24 08:57:04;;;;;;;11.05;9.48;;;21.80;71.90;;;;;;5075513;28;20020;-75
2022/04/24 08:59:29;;;;;;;10.85;9.10;;;20.60;70.10;;;;;;5075815;28;20502;-75
2022/04/24 09:01:58;;;;;;;11.40;9.07;;;20.10;70.70;;;;;;5075860;28;20143;-75
2022/04/24 09:04:26;;;;;;;13.60;9.65;;;20.30;71.90;;;;;;5074625;28;20103;-75
2022/04/24 09:07:00;;;;;;;11.95;9.85;;;20.60;68.50;;;;;;5074544;28;20025;-75
2022/04/24 09:09:26;;;;;;;11.10;9.57;;;20.40;69.60;;;;;;5075658;28;20193;-75
2022/04/24 09:11:51;;;;;;;10.82;9.65;;;19.00;72.00;;;;;;5075627;28;20044;-74
2022/04/24 09:14:19;;;;;;;10.57;9.57;;;18.10;77.60;;;;;;5074509;28;20036;-74
2022/04/24 09:16:47;;;;;;;11.75;9.65;;;18.60;77.90;;;;;;5075575;28;20025;-75
2022/04/24 09:19:17;;;;;;;10.70;8.68;;;19.50;75.20;;;;;;5074352;28;20024;-75
2022/04/24 09:21:44;;;;;;;13.13;9.30;;;20.10;73.00;;;;;;5091332;28;20403;-75
2022/04/24 09:24:09;;;;;;;11.13;9.93;;;20.90;73.00;;;;;;5074148;28;20082;-75
2022/04/24 09:26:35;;;;;;;10.85;9.73;;;21.20;69.90;;;;;;5075374;28;20036;-75
2022/04/24 09:29:00;;;;;;;11.65;9.25;;;20.80;74.40;;;;;;5075393;28;20016;-76
2022/04/24 09:31:29;;;;;;;13.93;10.13;;;21.70;70.70;;;;;;5107908;28;20024;-75
2022/04/24 09:33:55;;;;;;;10.50;9.40;;;21.90;67.30;;;;;;5107849;28;20095;-76
2022/04/24 09:36:24;;;;;;;14.27;9.20;;;21.90;68.10;;;;;;5075182;28;20170;-76
2022/04/24 09:38:50;;;;;;;10.80;9.27;;;22.50;68.00;;;;;;5073934;28;20024;-75
2022/04/24 09:41:20;;;;;;;11.05;9.27;;;20.70;66.80;;;;;;5075126;28;20020;-75
2022/04/24 09:43:46;;;;;;;12.75;9.88;;;20.30;69.60;;;;;;5107492;28;20040;-73
2022/04/24 09:46:11;;;;;;;11.23;9.63;;;20.40;69.90;;;;;;5074900;28;20479;-74
2022/04/24 09:48:38;;;;;;;10.43;9.13;;;20.10;70.50;;;;;;5074994;28;20028;-74
2022/04/24 09:51:04;;;;;;;16.13;10.30;;;19.30;71.10;;;;;;5074931;28;20532;-75
2022/04/24 09:53:31;;;;;;;12.70;10.15;;;19.30;72.80;;;;;;5074928;28;20021;-73
2022/04/24 09:55:59;;;;;;;12.50;10.32;;;20.60;72.20;;;;;;5074880;28;20489;-74
2022/04/24 09:58:25;;;;;;;13.65;9.88;;;20.60;68.90;;;;;;5074841;28;20036;-75
2022/04/24 10:00:51;;;;;;;13.18;9.90;;;21.00;67.40;;;;;;5074732;28;20039;-74
2022/04/24 10:03:20;;;;;;;11.82;9.57;;;21.60;67.30;;;;;;5107166;28;20020;-75
2022/04/24 10:05:47;;;;;;;12.20;10.35;;;21.80;68.60;;;;;;5074591;28;20016;-75
2022/04/24 10:08:15;;;;;;;11.93;9.90;;;20.40;66.60;;;;;;5073637;28;20017;-75
2022/04/24 10:10:40;;;;;;;14.85;10.68;;;19.10;70.00;;;;;;5074534;28;20394;-74
2022/04/24 10:13:09;;;;;;;11.40;10.20;;;19.10;71.90;;;;;;5074489;28;20020;-74
2022/04/24 10:15:39;;;;;;;11.00;9.38;;;20.00;73.00;;;;;;5074395;28;20466;-75
2022/04/24 10:21:22;;;;;;;15.60;10.40;;;21.40;66.10;;;;;;5127073;27;20632;-75
2022/04/24 10:23:48;;;;;;;13.75;10.10;;;21.00;67.20;;;;;;5111027;28;20028;-76
2022/04/24 10:26:19;;;;;;;14.88;11.30;;;21.60;68.50;;;;;;5110979;28;20093;-75
2022/04/24 10:28:46;;;;;;;13.70;11.48;;;20.80;65.20;;;;;;5110982;28;20051;-74
2022/04/24 10:31:12;;;;;;;15.63;10.75;;;19.80;68.50;;;;;;5109781;28;20020;-74
2022/04/24 10:33:40;;;;;;;13.00;10.95;;;19.20;73.20;;;;;;5075926;28;20119;-74
2022/04/24 10:36:12;;;;;;;12.52;10.77;;;20.00;71.90;;;;;;5092596;28;20024;-74
2022/04/24 10:38:48;;;;;;;12.93;10.20;;;20.40;71.00;;;;;;5092538;28;20046;-74
2022/04/24 10:41:19;;;;;;;12.30;10.05;;;20.40;69.40;;;;;;5110673;28;20566;-74
2022/04/24 10:43:48;;;;;;;9.95;8.88;;;19.60;71.30;;;;;;5110649;28;20328;-73
2022/04/24 10:46:28;;;;;;;10.95;9.77;;;20.00;75.50;;;;;;5110568;28;20019;-74
2022/04/24 10:49:05;;;;;;;12.18;10.18;;;20.40;71.70;;;;;;5110413;28;20093;-73
2022/04/24 10:51:32;;;;;;;11.55;9.90;;;19.90;71.40;;;;;;5110549;28;20445;-74
2022/04/24 10:54:00;;;;;;;10.98;9.88;;;18.90;73.10;;;;;;5110496;28;20547;-74
2022/04/24 10:56:27;;;;;;;11.75;9.98;;;19.30;76.30;;;;;;5126260;28;20030;-74
2022/04/24 10:58:52;;;;;;;12.05;10.30;;;19.20;74.70;;;;;;5126289;28;20525;-74
2022/04/24 11:01:18;;;;;;;13.75;10.20;;;19.30;74.60;;;;;;5092095;28;20027;-74
2022/04/24 11:03:46;;;;;;;11.43;10.15;;;19.30;75.40;;;;;;5110253;28;20482;-74
2022/04/24 11:06:27;;;;;;;13.30;9.50;;;19.10;75.20;;;;;;5110298;28;20027;-74
2022/04/24 11:08:53;;;;;;;12.23;10.10;;;18.30;77.50;;;;;;5110258;28;20035;-73
2022/04/24 11:11:18;;;;;;;12.95;9.98;;;18.20;79.20;;;;;;5074911;28;20371;-74
2022/04/24 11:13:44;;;;;;;15.05;10.38;;;17.90;78.30;;;;;;5091989;28;20493;-73
2022/04/24 11:16:12;;;;;;;15.73;10.40;;;17.50;78.90;;;;;;5091974;28;20119;-73
2022/04/24 11:18:37;;;;;;;11.20;9.98;;;17.50;79.70;;;;;;5091652;28;20386;-73
2022/04/24 11:21:05;;;;;;;17.08;10.93;;;18.10;79.30;;;;;;5091724;28;20028;-74
2022/04/24 11:23:35;;;;;;;18.73;10.45;;;18.00;78.70;;;;;;5091641;28;20065;-74
2022/04/24 11:26:02;;;;;;;12.82;9.90;;;18.00;79.20;;;;;;5109921;28;20098;-73
2022/04/24 11:28:38;;;;;;;13.00;9.52;;;18.30;79.90;;;;;;5108853;28;20052;-73
2022/04/24 11:31:22;;;;;;;11.75;9.27;;;18.00;81.40;;;;;;5084880;28;20110;-73
2022/04/24 11:33:53;;;;;;;14.10;9.82;;;18.00;82.30;;;;;;5096209;28;20027;-74
2022/04/24 11:36:20;;;;;;;12.77;9.60;;;17.50;83.10;;;;;;5096090;28;20069;-75
2022/04/24 11:38:48;;;;;;;12.48;10.07;;;17.50;83.40;;;;;;5095955;28;20070;-73
2022/04/24 11:41:14;;;;;;;11.52;10.13;;;17.80;81.90;;;;;;5094931;28;20020;-73
2022/04/24 11:43:41;;;;;;;12.40;9.73;;;17.70;81.20;;;;;;5077854;28;20035;-73
2022/04/24 11:51:38;;;;;;;12.68;10.13;;;18.60;77.50;;;;;;5080625;28;20111;-74
2022/04/24 11:54:05;;;;;;;11.18;9.55;;;18.90;77.80;;;;;;5077727;28;20107;-73
2022/04/24 11:56:32;;;;;;;11.63;9.77;;;18.50;79.00;;;;;;5095748;28;20024;-74
2022/04/24 11:59:15;;;;;;;11.68;9.80;;;18.10;76.20;;;;;;5095592;28;20424;-73
2022/04/24 12:01:41;;;;;;;12.32;9.40;;;18.10;79.20;;;;;;5095607;28;20543;-73
2022/04/24 12:04:07;;;;;;;11.05;9.32;;;18.30;78.10;;;;;;5060693;28;20024;-73
2022/04/24 12:06:33;;;;;;;10.65;9.25;;;18.30;77.60;;;;;;5077413;28;20110;-73
2022/04/24 12:09:07;;;;;;;21.95;11.02;;;17.90;78.60;;;;;;5060769;28;20181;-73
2022/04/24 12:11:35;;;;;;;13.73;9.35;;;17.50;78.00;;;;;;5077314;28;20039;-72
2022/04/24 12:14:06;;;;;;;13.70;10.02;;;17.70;81.20;;;;;;5095432;28;20474;-73
2022/04/24 12:16:32;;;;;;;12.48;9.40;;;18.00;79.20;;;;;;5095444;28;20494;-73
2022/04/24 12:18:59;;;;;;;11.15;9.32;;;18.00;79.10;;;;;;5095288;28;20044;-73
2022/04/24 12:21:27;;;;;;;10.43;8.80;;;18.10;78.70;;;;;;5077400;28;20093;-73
2022/04/24 12:23:54;;;;;;;10.93;9.50;;;18.30;79.20;;;;;;5077452;28;20020;-72
2022/04/24 12:26:20;;;;;;;15.80;9.90;;;18.10;77.70;;;;;;5095157;28;20016;-73
2022/04/24 12:28:47;;;;;;;15.07;9.75;;;17.80;79.90;;;;;;5095028;28;20016;-73
2022/04/24 12:31:24;;;;;;;14.90;9.40;;;18.00;79.10;;;;;;5095014;28;20016;-73
2022/04/24 12:33:52;;;;;;;15.00;9.48;;;17.80;79.50;;;;;;5095059;28;20024;-73
2022/04/24 12:36:19;;;;;;;18.98;10.00;;;17.80;80.10;;;;;;5077280;28;20454;-73
2022/04/24 12:39:04;;;;;;;12.93;9.43;;;18.30;79.20;;;;;;5060160;28;20020;-73
2022/04/24 12:41:30;;;;;;;11.30;9.40;;;17.90;79.40;;;;;;5110942;28;20412;-73
2022/04/24 12:44:05;;;;;;;11.10;9.63;;;17.80;79.80;;;;;;5093921;28;20042;-73
2022/04/24 12:46:31;;;;;;;11.20;9.20;;;17.80;78.80;;;;;;5076581;28;20024;-74
2022/04/24 12:48:58;;;;;;;13.82;9.27;;;18.00;76.60;;;;;;5094728;28;20046;-73